sensor_id;sensor_type;location;lat;lon;timestamp;P1;durP1;ratioP1;P2;durP2;ratioP2
1004;SDS011;491;53.480;10.174;2023-03-21T00:00:53;11.57;;;9.00;;
1004;SDS011;491;53.480;10.174;2023-03-21T00:03:20;14.07;;;9.37;;
1004;SDS011;491;53.480;10.174;2023-03-21T00:05:47;11.80;;;9.37;;
1004;SDS011;491;53.480;10.174;2023-03-21T00:08:17;11.03;;;9.03;;
1004;SDS011;491;53.480;10.174;2023-03-21T00:11:08;11.90;;;9.87;;
1004;SDS011;491;53.480;10.174;2023-03-21T00:13:36;14.80;;;11.90;;
1004;SDS011;491;53.480;10.174;2023-03-21T00:16:06;14.87;;;11.20;;
1004;SDS011;491;53.480;10.174;2023-03-21T00:18:43;17.10;;;12.40;;
1004;SDS011;491;53.480;10.174;2023-03-21T00:21:11;15.13;;;12.13;;
1004;SDS011;491;53.480;10.174;2023-03-21T00:23:40;15.57;;;12.10;;
1004;SDS011;491;53.480;10.174;2023-03-21T00:26:07;19.73;;;10.53;;
1004;SDS011;491;53.480;10.174;2023-03-21T00:28:38;16.80;;;12.50;;
1004;SDS011;491;53.480;10.174;2023-03-21T00:31:05;21.63;;;14.50;;
1004;SDS011;491;53.480;10.174;2023-03-21T00:33:31;18.10;;;12.63;;
1004;SDS011;491;53.480;10.174;2023-03-21T00:35:59;18.30;;;13.90;;
1004;SDS011;491;53.480;10.174;2023-03-21T00:38:26;18.00;;;13.07;;
1004;SDS011;491;53.480;10.174;2023-03-21T00:40:54;17.10;;;13.40;;
1004;SDS011;491;53.480;10.174;2023-03-21T00:43:33;17.77;;;15.50;;
1004;SDS011;491;53.480;10.174;2023-03-21T00:45:59;22.80;;;16.40;;
1004;SDS011;491;53.480;10.174;2023-03-21T00:48:27;20.37;;;13.87;;
1004;SDS011;491;53.480;10.174;2023-03-21T00:50:53;21.83;;;15.50;;
1004;SDS011;491;53.480;10.174;2023-03-21T00:53:21;20.97;;;14.97;;
1004;SDS011;491;53.480;10.174;2023-03-21T00:55:47;22.83;;;16.40;;
1004;SDS011;491;53.480;10.174;2023-03-21T00:58:13;18.73;;;14.93;;
1004;SDS011;491;53.480;10.174;2023-03-21T01:00:41;24.57;;;17.47;;
1004;SDS011;491;53.480;10.174;2023-03-21T01:03:08;21.13;;;15.03;;
1004;SDS011;491;53.480;10.174;2023-03-21T01:05:41;22.30;;;15.30;;
1004;SDS011;491;53.480;10.174;2023-03-21T01:08:32;18.47;;;13.80;;
1004;SDS011;491;53.480;10.174;2023-03-21T01:11:03;21.13;;;15.23;;
1004;SDS011;491;53.480;10.174;2023-03-21T01:13:55;19.93;;;13.77;;
1004;SDS011;491;53.480;10.174;2023-03-21T01:16:21;26.10;;;15.80;;
1004;SDS011;491;53.480;10.174;2023-03-21T01:18:54;22.53;;;16.33;;
1004;SDS011;491;53.480;10.174;2023-03-21T01:21:20;23.37;;;16.83;;
1004;SDS011;491;53.480;10.174;2023-03-21T01:23:52;20.03;;;15.70;;
1004;SDS011;491;53.480;10.174;2023-03-21T01:26:17;21.87;;;16.10;;
1004;SDS011;491;53.480;10.174;2023-03-21T01:28:46;22.20;;;17.60;;
1004;SDS011;491;53.480;10.174;2023-03-21T01:31:13;20.83;;;15.03;;
1004;SDS011;491;53.480;10.174;2023-03-21T01:33:40;23.87;;;15.53;;
1004;SDS011;491;53.480;10.174;2023-03-21T01:36:06;27.73;;;15.60;;
1004;SDS011;491;53.480;10.174;2023-03-21T01:38:48;22.60;;;16.17;;
1004;SDS011;491;53.480;10.174;2023-03-21T01:41:24;24.17;;;16.73;;
1004;SDS011;491;53.480;10.174;2023-03-21T01:43:51;22.63;;;15.37;;
1004;SDS011;491;53.480;10.174;2023-03-21T01:46:39;25.13;;;17.60;;
1004;SDS011;491;53.480;10.174;2023-03-21T01:49:14;23.33;;;15.80;;
1004;SDS011;491;53.480;10.174;2023-03-21T01:51:51;25.70;;;17.20;;
1004;SDS011;491;53.480;10.174;2023-03-21T01:54:33;24.60;;;17.00;;
1004;SDS011;491;53.480;10.174;2023-03-21T01:57:05;21.43;;;17.77;;
1004;SDS011;491;53.480;10.174;2023-03-21T01:59:41;24.57;;;17.97;;
1004;SDS011;491;53.480;10.174;2023-03-21T02:02:26;24.10;;;16.30;;
1004;SDS011;491;53.480;10.174;2023-03-21T02:04:56;21.10;;;15.50;;
1004;SDS011;491;53.480;10.174;2023-03-21T02:07:27;22.80;;;15.67;;
1004;SDS011;491;53.480;10.174;2023-03-21T02:10:04;22.97;;;17.23;;
1004;SDS011;491;53.480;10.174;2023-03-21T02:13:32;23.30;;;16.57;;
1004;SDS011;491;53.480;10.174;2023-03-21T02:16:11;21.70;;;16.33;;
1004;SDS011;491;53.480;10.174;2023-03-21T02:19:07;23.53;;;17.13;;
1004;SDS011;491;53.480;10.174;2023-03-21T02:21:58;25.70;;;17.87;;
1004;SDS011;491;53.480;10.174;2023-03-21T02:25:04;22.50;;;15.17;;
1004;SDS011;491;53.480;10.174;2023-03-21T02:28:02;21.37;;;15.10;;
1004;SDS011;491;53.480;10.174;2023-03-21T02:42:57;23.00;;;16.77;;
1004;SDS011;491;53.480;10.174;2023-03-21T02:45:29;22.20;;;17.50;;
1004;SDS011;491;53.480;10.174;2023-03-21T02:48:04;27.00;;;17.70;;
1004;SDS011;491;53.480;10.174;2023-03-21T02:50:34;20.87;;;15.40;;
1004;SDS011;491;53.480;10.174;2023-03-21T02:53:06;27.00;;;17.77;;
1004;SDS011;491;53.480;10.174;2023-03-21T02:55:33;21.83;;;16.60;;
1004;SDS011;491;53.480;10.174;2023-03-21T02:58:01;24.00;;;16.27;;
1004;SDS011;491;53.480;10.174;2023-03-21T03:00:30;24.00;;;16.83;;
1004;SDS011;491;53.480;10.174;2023-03-21T03:02:57;25.40;;;17.70;;
1004;SDS011;491;53.480;10.174;2023-03-21T03:05:27;24.03;;;16.33;;
1004;SDS011;491;53.480;10.174;2023-03-21T03:08:14;23.23;;;15.53;;
1004;SDS011;491;53.480;10.174;2023-03-21T03:16:56;27.50;;;17.67;;
1004;SDS011;491;53.480;10.174;2023-03-21T03:19:29;24.47;;;17.27;;
1004;SDS011;491;53.480;10.174;2023-03-21T03:22:00;20.70;;;15.80;;
1004;SDS011;491;53.480;10.174;2023-03-21T03:24:32;23.60;;;16.70;;
1004;SDS011;491;53.480;10.174;2023-03-21T03:27:05;20.97;;;15.73;;
1004;SDS011;491;53.480;10.174;2023-03-21T03:29:38;21.60;;;16.70;;
1004;SDS011;491;53.480;10.174;2023-03-21T03:32:16;21.30;;;16.43;;
1004;SDS011;491;53.480;10.174;2023-03-21T03:34:52;24.70;;;17.53;;
1004;SDS011;491;53.480;10.174;2023-03-21T03:37:23;26.33;;;17.97;;
1004;SDS011;491;53.480;10.174;2023-03-21T03:40:08;26.33;;;17.10;;
1004;SDS011;491;53.480;10.174;2023-03-21T03:42:55;20.40;;;15.60;;
1004;SDS011;491;53.480;10.174;2023-03-21T03:45:49;27.43;;;17.90;;
1004;SDS011;491;53.480;10.174;2023-03-21T03:48:58;25.63;;;17.60;;
1004;SDS011;491;53.480;10.174;2023-03-21T03:52:09;24.77;;;16.70;;
1004;SDS011;491;53.480;10.174;2023-03-21T03:54:45;24.33;;;16.83;;
1004;SDS011;491;53.480;10.174;2023-03-21T03:57:24;25.27;;;18.10;;
1004;SDS011;491;53.480;10.174;2023-03-21T03:59:58;21.63;;;16.07;;
1004;SDS011;491;53.480;10.174;2023-03-21T04:02:24;25.63;;;19.33;;
1004;SDS011;491;53.480;10.174;2023-03-21T04:04:56;26.20;;;15.90;;
1004;SDS011;491;53.480;10.174;2023-03-21T04:07:38;24.60;;;17.00;;
1004;SDS011;491;53.480;10.174;2023-03-21T04:10:23;22.23;;;15.87;;
1004;SDS011;491;53.480;10.174;2023-03-21T04:12:51;26.57;;;18.80;;
1004;SDS011;491;53.480;10.174;2023-03-21T04:15:30;25.20;;;17.37;;
1004;SDS011;491;53.480;10.174;2023-03-21T04:17:57;23.37;;;16.20;;
1004;SDS011;491;53.480;10.174;2023-03-21T04:20:43;23.87;;;17.70;;
1004;SDS011;491;53.480;10.174;2023-03-21T04:23:23;25.17;;;17.47;;
1004;SDS011;491;53.480;10.174;2023-03-21T04:25:50;24.77;;;16.17;;
1004;SDS011;491;53.480;10.174;2023-03-21T04:28:16;22.40;;;15.83;;
1004;SDS011;491;53.480;10.174;2023-03-21T04:30:43;22.40;;;17.20;;
1004;SDS011;491;53.480;10.174;2023-03-21T04:33:10;24.77;;;16.07;;
1004;SDS011;491;53.480;10.174;2023-03-21T04:35:39;22.43;;;18.03;;
1004;SDS011;491;53.480;10.174;2023-03-21T04:38:16;22.53;;;17.60;;
1004;SDS011;491;53.480;10.174;2023-03-21T04:40:45;22.17;;;16.53;;
1004;SDS011;491;53.480;10.174;2023-03-21T04:43:10;26.20;;;19.83;;
1004;SDS011;491;53.480;10.174;2023-03-21T04:45:53;22.27;;;18.30;;
1004;SDS011;491;53.480;10.174;2023-03-21T04:48:21;28.10;;;19.53;;
1004;SDS011;491;53.480;10.174;2023-03-21T04:50:56;26.97;;;17.17;;
1004;SDS011;491;53.480;10.174;2023-03-21T04:53:22;30.20;;;20.80;;
1004;SDS011;491;53.480;10.174;2023-03-21T04:55:47;29.47;;;20.10;;
1004;SDS011;491;53.480;10.174;2023-03-21T04:58:13;27.40;;;18.40;;
1004;SDS011;491;53.480;10.174;2023-03-21T05:00:45;28.73;;;18.83;;
1004;SDS011;491;53.480;10.174;2023-03-21T05:03:46;26.63;;;19.10;;
1004;SDS011;491;53.480;10.174;2023-03-21T05:06:14;31.77;;;21.23;;
1004;SDS011;491;53.480;10.174;2023-03-21T05:08:54;27.60;;;20.03;;
1004;SDS011;491;53.480;10.174;2023-03-21T05:11:33;27.83;;;18.27;;
1004;SDS011;491;53.480;10.174;2023-03-21T05:14:21;26.20;;;18.40;;
1004;SDS011;491;53.480;10.174;2023-03-21T05:17:08;27.63;;;19.40;;
1004;SDS011;491;53.480;10.174;2023-03-21T05:19:53;28.27;;;19.60;;
1004;SDS011;491;53.480;10.174;2023-03-21T05:22:35;28.27;;;18.67;;
1004;SDS011;491;53.480;10.174;2023-03-21T05:25:21;35.20;;;20.80;;
1004;SDS011;491;53.480;10.174;2023-03-21T05:28:26;31.43;;;20.33;;
1004;SDS011;491;53.480;10.174;2023-03-21T05:30:55;31.87;;;20.77;;
1004;SDS011;491;53.480;10.174;2023-03-21T05:33:24;27.73;;;18.43;;
1004;SDS011;491;53.480;10.174;2023-03-21T05:35:53;25.50;;;19.50;;
1004;SDS011;491;53.480;10.174;2023-03-21T05:38:18;28.80;;;20.43;;
1004;SDS011;491;53.480;10.174;2023-03-21T05:40:47;28.23;;;20.70;;
1004;SDS011;491;53.480;10.174;2023-03-21T05:43:13;30.23;;;20.17;;
1004;SDS011;491;53.480;10.174;2023-03-21T05:45:38;31.23;;;22.00;;
1004;SDS011;491;53.480;10.174;2023-03-21T05:48:04;27.40;;;19.43;;
1004;SDS011;491;53.480;10.174;2023-03-21T05:50:30;29.97;;;20.00;;
1004;SDS011;491;53.480;10.174;2023-03-21T05:52:55;28.50;;;21.20;;
1004;SDS011;491;53.480;10.174;2023-03-21T05:55:21;28.73;;;19.33;;
1004;SDS011;491;53.480;10.174;2023-03-21T05:57:46;31.50;;;20.07;;
1004;SDS011;491;53.480;10.174;2023-03-21T06:00:12;25.53;;;19.03;;
1004;SDS011;491;53.480;10.174;2023-03-21T06:02:38;28.10;;;19.33;;
1004;SDS011;491;53.480;10.174;2023-03-21T06:05:07;30.67;;;20.50;;
1004;SDS011;491;53.480;10.174;2023-03-21T06:07:54;26.03;;;17.90;;
1004;SDS011;491;53.480;10.174;2023-03-21T06:10:20;25.40;;;18.33;;
1004;SDS011;491;53.480;10.174;2023-03-21T06:12:46;28.50;;;20.10;;
1004;SDS011;491;53.480;10.174;2023-03-21T06:15:21;30.87;;;21.03;;
1004;SDS011;491;53.480;10.174;2023-03-21T06:17:50;26.10;;;19.20;;
1004;SDS011;491;53.480;10.174;2023-03-21T06:20:35;32.43;;;21.37;;
1004;SDS011;491;53.480;10.174;2023-03-21T06:23:01;26.37;;;18.90;;
1004;SDS011;491;53.480;10.174;2023-03-21T06:25:28;28.33;;;19.70;;
1004;SDS011;491;53.480;10.174;2023-03-21T06:28:14;29.33;;;20.60;;
1004;SDS011;491;53.480;10.174;2023-03-21T06:30:42;31.97;;;21.40;;
1004;SDS011;491;53.480;10.174;2023-03-21T06:33:11;31.53;;;21.30;;
1004;SDS011;491;53.480;10.174;2023-03-21T06:35:59;32.00;;;21.97;;
1004;SDS011;491;53.480;10.174;2023-03-21T06:38:52;32.07;;;20.70;;
1004;SDS011;491;53.480;10.174;2023-03-21T06:41:17;31.80;;;22.43;;
1004;SDS011;491;53.480;10.174;2023-03-21T06:43:53;35.33;;;21.30;;
1004;SDS011;491;53.480;10.174;2023-03-21T06:46:18;32.53;;;22.60;;
1004;SDS011;491;53.480;10.174;2023-03-21T06:48:50;27.90;;;19.83;;
1004;SDS011;491;53.480;10.174;2023-03-21T06:51:20;27.87;;;21.17;;
1004;SDS011;491;53.480;10.174;2023-03-21T06:53:46;27.80;;;21.33;;
1004;SDS011;491;53.480;10.174;2023-03-21T06:56:15;29.30;;;20.73;;
1004;SDS011;491;53.480;10.174;2023-03-21T06:58:41;31.80;;;21.10;;
1004;SDS011;491;53.480;10.174;2023-03-21T07:01:07;36.90;;;22.07;;
1004;SDS011;491;53.480;10.174;2023-03-21T07:03:33;34.50;;;22.60;;
1004;SDS011;491;53.480;10.174;2023-03-21T07:06:03;31.40;;;20.90;;
1004;SDS011;491;53.480;10.174;2023-03-21T07:08:44;30.60;;;21.60;;
1004;SDS011;491;53.480;10.174;2023-03-21T07:11:53;30.13;;;20.13;;
1004;SDS011;491;53.480;10.174;2023-03-21T07:14:21;32.57;;;21.23;;
1004;SDS011;491;53.480;10.174;2023-03-21T07:16:55;34.13;;;23.60;;
1004;SDS011;491;53.480;10.174;2023-03-21T07:19:22;32.33;;;22.90;;
1004;SDS011;491;53.480;10.174;2023-03-21T07:21:50;33.20;;;22.57;;
1004;SDS011;491;53.480;10.174;2023-03-21T07:24:19;34.00;;;22.20;;
1004;SDS011;491;53.480;10.174;2023-03-21T07:26:53;36.70;;;22.47;;
1004;SDS011;491;53.480;10.174;2023-03-21T07:29:21;35.67;;;23.20;;
1004;SDS011;491;53.480;10.174;2023-03-21T07:32:00;37.33;;;22.93;;
1004;SDS011;491;53.480;10.174;2023-03-21T07:34:26;32.10;;;21.33;;
1004;SDS011;491;53.480;10.174;2023-03-21T07:36:55;30.83;;;21.13;;
1004;SDS011;491;53.480;10.174;2023-03-21T07:39:22;34.50;;;23.47;;
1004;SDS011;491;53.480;10.174;2023-03-21T07:41:56;33.37;;;23.07;;
1004;SDS011;491;53.480;10.174;2023-03-21T07:44:56;28.10;;;19.60;;
1004;SDS011;491;53.480;10.174;2023-03-21T07:47:25;31.30;;;22.30;;
1004;SDS011;491;53.480;10.174;2023-03-21T07:49:51;33.10;;;21.57;;
1004;SDS011;491;53.480;10.174;2023-03-21T07:52:16;33.30;;;23.30;;
1004;SDS011;491;53.480;10.174;2023-03-21T07:54:55;30.50;;;21.70;;
1004;SDS011;491;53.480;10.174;2023-03-21T07:57:23;32.63;;;20.83;;
1004;SDS011;491;53.480;10.174;2023-03-21T07:59:51;29.03;;;19.77;;
1004;SDS011;491;53.480;10.174;2023-03-21T08:02:16;35.47;;;23.00;;
1004;SDS011;491;53.480;10.174;2023-03-21T08:04:44;35.03;;;23.67;;
1004;SDS011;491;53.480;10.174;2023-03-21T08:07:10;37.43;;;24.63;;
1004;SDS011;491;53.480;10.174;2023-03-21T08:09:56;32.17;;;22.90;;
1004;SDS011;491;53.480;10.174;2023-03-21T08:12:28;39.93;;;23.67;;
1004;SDS011;491;53.480;10.174;2023-03-21T08:15:18;34.93;;;21.77;;
1004;SDS011;491;53.480;10.174;2023-03-21T08:18:09;30.20;;;22.67;;
1004;SDS011;491;53.480;10.174;2023-03-21T08:20:35;26.67;;;20.13;;
1004;SDS011;491;53.480;10.174;2023-03-21T08:23:01;29.50;;;21.77;;
1004;SDS011;491;53.480;10.174;2023-03-21T08:25:29;29.80;;;20.40;;
1004;SDS011;491;53.480;10.174;2023-03-21T08:28:00;27.57;;;21.23;;
1004;SDS011;491;53.480;10.174;2023-03-21T08:30:27;28.13;;;21.80;;
1004;SDS011;491;53.480;10.174;2023-03-21T08:32:59;33.50;;;21.70;;
1004;SDS011;491;53.480;10.174;2023-03-21T08:35:29;33.57;;;23.40;;
1004;SDS011;491;53.480;10.174;2023-03-21T08:38:00;33.97;;;24.63;;
1004;SDS011;491;53.480;10.174;2023-03-21T08:40:27;30.10;;;19.80;;
1004;SDS011;491;53.480;10.174;2023-03-21T08:42:55;29.67;;;21.30;;
1004;SDS011;491;53.480;10.174;2023-03-21T08:45:21;28.63;;;20.27;;
1004;SDS011;491;53.480;10.174;2023-03-21T08:48:01;28.27;;;21.80;;
1004;SDS011;491;53.480;10.174;2023-03-21T08:50:27;27.93;;;20.50;;
1004;SDS011;491;53.480;10.174;2023-03-21T08:52:57;30.60;;;21.00;;
1004;SDS011;491;53.480;10.174;2023-03-21T08:55:26;35.73;;;21.90;;
1004;SDS011;491;53.480;10.174;2023-03-21T08:57:53;28.73;;;18.93;;
1004;SDS011;491;53.480;10.174;2023-03-21T09:00:28;29.63;;;20.17;;
1004;SDS011;491;53.480;10.174;2023-03-21T09:02:54;25.33;;;19.40;;
1004;SDS011;491;53.480;10.174;2023-03-21T09:05:24;27.20;;;18.77;;
1004;SDS011;491;53.480;10.174;2023-03-21T09:07:53;29.30;;;21.43;;
1004;SDS011;491;53.480;10.174;2023-03-21T09:10:20;31.20;;;20.70;;
1004;SDS011;491;53.480;10.174;2023-03-21T09:12:50;25.70;;;17.93;;
1004;SDS011;491;53.480;10.174;2023-03-21T09:15:17;26.20;;;18.57;;
1004;SDS011;491;53.480;10.174;2023-03-21T09:17:48;23.20;;;17.00;;
1004;SDS011;491;53.480;10.174;2023-03-21T09:20:24;22.70;;;18.90;;
1004;SDS011;491;53.480;10.174;2023-03-21T09:22:56;22.70;;;17.40;;
1004;SDS011;491;53.480;10.174;2023-03-21T09:25:25;27.73;;;18.00;;
1004;SDS011;491;53.480;10.174;2023-03-21T09:28:04;28.83;;;18.80;;
1004;SDS011;491;53.480;10.174;2023-03-21T09:30:42;26.03;;;17.03;;
1004;SDS011;491;53.480;10.174;2023-03-21T09:33:08;22.47;;;18.20;;
1004;SDS011;491;53.480;10.174;2023-03-21T09:35:50;23.23;;;16.27;;
1004;SDS011;491;53.480;10.174;2023-03-21T09:38:26;22.97;;;16.43;;
1004;SDS011;491;53.480;10.174;2023-03-21T09:41:38;25.77;;;17.70;;
1004;SDS011;491;53.480;10.174;2023-03-21T09:47:24;26.67;;;18.90;;
1004;SDS011;491;53.480;10.174;2023-03-21T09:50:00;26.97;;;18.37;;
1004;SDS011;491;53.480;10.174;2023-03-21T09:52:34;24.87;;;17.20;;
1004;SDS011;491;53.480;10.174;2023-03-21T09:55:14;33.53;;;19.60;;
1004;SDS011;491;53.480;10.174;2023-03-21T09:57:52;27.63;;;17.77;;
1004;SDS011;491;53.480;10.174;2023-03-21T10:00:35;24.73;;;16.47;;
1004;SDS011;491;53.480;10.174;2023-03-21T10:03:04;26.13;;;16.03;;
1004;SDS011;491;53.480;10.174;2023-03-21T10:05:47;28.07;;;18.60;;
1004;SDS011;491;53.480;10.174;2023-03-21T10:08:35;21.83;;;14.27;;
1004;SDS011;491;53.480;10.174;2023-03-21T10:14:21;27.73;;;17.97;;
1004;SDS011;491;53.480;10.174;2023-03-21T10:16:58;24.50;;;16.60;;
1004;SDS011;491;53.480;10.174;2023-03-21T10:19:45;28.37;;;16.30;;
1004;SDS011;491;53.480;10.174;2023-03-21T10:22:20;21.40;;;15.60;;
1004;SDS011;491;53.480;10.174;2023-03-21T10:24:45;23.53;;;15.13;;
1004;SDS011;491;53.480;10.174;2023-03-21T10:27:11;29.40;;;18.23;;
1004;SDS011;491;53.480;10.174;2023-03-21T10:29:40;23.37;;;17.30;;
1004;SDS011;491;53.480;10.174;2023-03-21T10:32:11;24.70;;;15.67;;
1004;SDS011;491;53.480;10.174;2023-03-21T10:34:40;26.77;;;15.83;;
1004;SDS011;491;53.480;10.174;2023-03-21T10:37:09;22.07;;;15.23;;
1004;SDS011;491;53.480;10.174;2023-03-21T10:39:44;23.77;;;15.73;;
1004;SDS011;491;53.480;10.174;2023-03-21T10:42:26;26.97;;;15.73;;
1004;SDS011;491;53.480;10.174;2023-03-21T10:44:55;27.33;;;16.97;;
1004;SDS011;491;53.480;10.174;2023-03-21T10:47:31;25.53;;;16.70;;
1004;SDS011;491;53.480;10.174;2023-03-21T10:50:01;23.47;;;15.87;;
1004;SDS011;491;53.480;10.174;2023-03-21T10:52:31;24.47;;;15.93;;
1004;SDS011;491;53.480;10.174;2023-03-21T10:55:10;23.80;;;15.40;;
1004;SDS011;491;53.480;10.174;2023-03-21T10:58:04;25.50;;;14.90;;
1004;SDS011;491;53.480;10.174;2023-03-21T11:00:42;25.53;;;15.50;;
1004;SDS011;491;53.480;10.174;2023-03-21T11:03:22;21.23;;;15.60;;
1004;SDS011;491;53.480;10.174;2023-03-21T11:06:03;24.63;;;16.77;;
1004;SDS011;491;53.480;10.174;2023-03-21T11:08:36;25.57;;;16.07;;
1004;SDS011;491;53.480;10.174;2023-03-21T11:11:08;21.03;;;15.87;;
1004;SDS011;491;53.480;10.174;2023-03-21T11:13:40;24.53;;;16.93;;
1004;SDS011;491;53.480;10.174;2023-03-21T11:16:17;25.33;;;16.80;;
1004;SDS011;491;53.480;10.174;2023-03-21T11:18:51;21.97;;;15.53;;
1004;SDS011;491;53.480;10.174;2023-03-21T11:21:40;20.57;;;16.30;;
1004;SDS011;491;53.480;10.174;2023-03-21T11:24:08;23.60;;;16.23;;
1004;SDS011;491;53.480;10.174;2023-03-21T11:26:39;22.57;;;16.37;;
1004;SDS011;491;53.480;10.174;2023-03-21T11:32:31;22.90;;;15.10;;
1004;SDS011;491;53.480;10.174;2023-03-21T11:34:59;25.43;;;17.03;;
1004;SDS011;491;53.480;10.174;2023-03-21T11:37:27;22.20;;;16.40;;
1004;SDS011;491;53.480;10.174;2023-03-21T11:40:20;27.03;;;16.50;;
1004;SDS011;491;53.480;10.174;2023-03-21T11:42:48;24.50;;;17.13;;
1004;SDS011;491;53.480;10.174;2023-03-21T11:45:17;23.63;;;15.80;;
1004;SDS011;491;53.480;10.174;2023-03-21T11:47:46;26.53;;;16.57;;
1004;SDS011;491;53.480;10.174;2023-03-21T11:56:09;26.80;;;15.73;;
1004;SDS011;491;53.480;10.174;2023-03-21T11:58:51;26.90;;;15.60;;
1004;SDS011;491;53.480;10.174;2023-03-21T12:04:52;22.67;;;14.63;;
1004;SDS011;491;53.480;10.174;2023-03-21T12:10:50;20.80;;;15.07;;
1004;SDS011;491;53.480;10.174;2023-03-21T12:13:00;19.47;;;13.30;;
1004;SDS011;491;53.480;10.174;2023-03-21T12:16:07;22.17;;;14.30;;
1004;SDS011;491;53.480;10.174;2023-03-21T12:18:58;22.33;;;14.00;;
1004;SDS011;491;53.480;10.174;2023-03-21T12:21:49;21.83;;;14.40;;
1004;SDS011;491;53.480;10.174;2023-03-21T12:24:29;19.97;;;14.30;;
1004;SDS011;491;53.480;10.174;2023-03-21T12:27:11;22.40;;;13.77;;
1004;SDS011;491;53.480;10.174;2023-03-21T12:32:51;19.03;;;12.13;;
1004;SDS011;491;53.480;10.174;2023-03-21T12:44:02;13.50;;;12.00;;
1004;SDS011;491;53.480;10.174;2023-03-21T12:46:48;15.87;;;11.97;;
1004;SDS011;491;53.480;10.174;2023-03-21T12:49:46;13.67;;;10.13;;
1004;SDS011;491;53.480;10.174;2023-03-21T12:54:45;12.50;;;9.90;;
1004;SDS011;491;53.480;10.174;2023-03-21T12:59:49;14.27;;;10.40;;
1004;SDS011;491;53.480;10.174;2023-03-21T13:02:41;13.40;;;8.90;;
1004;SDS011;491;53.480;10.174;2023-03-21T13:07:46;12.00;;;9.60;;
1004;SDS011;491;53.480;10.174;2023-03-21T13:10:16;12.47;;;9.00;;
1004;SDS011;491;53.480;10.174;2023-03-21T13:13:08;11.00;;;7.43;;
1004;SDS011;491;53.480;10.174;2023-03-21T13:15:46;13.50;;;10.07;;
1004;SDS011;491;53.480;10.174;2023-03-21T13:18:22;12.20;;;8.23;;
1004;SDS011;491;53.480;10.174;2023-03-21T13:20:57;13.10;;;9.67;;
1004;SDS011;491;53.480;10.174;2023-03-21T13:23:36;11.53;;;8.10;;
1004;SDS011;491;53.480;10.174;2023-03-21T13:26:07;13.50;;;8.37;;
1004;SDS011;491;53.480;10.174;2023-03-21T13:28:35;12.70;;;9.40;;
1004;SDS011;491;53.480;10.174;2023-03-21T13:31:14;11.87;;;9.67;;
1004;SDS011;491;53.480;10.174;2023-03-21T13:33:44;11.87;;;7.70;;
1004;SDS011;491;53.480;10.174;2023-03-21T13:36:12;12.47;;;9.87;;
1004;SDS011;491;53.480;10.174;2023-03-21T13:38:41;15.80;;;8.60;;
1004;SDS011;491;53.480;10.174;2023-03-21T13:41:17;10.37;;;8.83;;
1004;SDS011;491;53.480;10.174;2023-03-21T13:54:03;10.80;;;8.83;;
1004;SDS011;491;53.480;10.174;2023-03-21T13:59:14;11.50;;;8.60;;
1004;SDS011;491;53.480;10.174;2023-03-21T14:01:57;12.43;;;8.37;;
1004;SDS011;491;53.480;10.174;2023-03-21T14:04:35;10.93;;;7.80;;
1004;SDS011;491;53.480;10.174;2023-03-21T14:07:07;12.20;;;9.10;;
1004;SDS011;491;53.480;10.174;2023-03-21T14:09:49;10.30;;;8.40;;
1004;SDS011;491;53.480;10.174;2023-03-21T14:12:23;13.70;;;8.87;;
1004;SDS011;491;53.480;10.174;2023-03-21T14:14:52;10.70;;;8.13;;
1004;SDS011;491;53.480;10.174;2023-03-21T14:17:30;9.37;;;7.90;;
1004;SDS011;491;53.480;10.174;2023-03-21T14:22:57;12.60;;;9.23;;
1004;SDS011;491;53.480;10.174;2023-03-21T14:25:24;11.63;;;8.30;;
1004;SDS011;491;53.480;10.174;2023-03-21T14:28:02;10.47;;;7.83;;
1004;SDS011;491;53.480;10.174;2023-03-21T14:30:34;11.67;;;8.10;;
1004;SDS011;491;53.480;10.174;2023-03-21T14:33:14;11.77;;;9.23;;
1004;SDS011;491;53.480;10.174;2023-03-21T14:35:47;12.60;;;8.40;;
1004;SDS011;491;53.480;10.174;2023-03-21T14:38:24;13.67;;;9.43;;
1004;SDS011;491;53.480;10.174;2023-03-21T14:40:53;15.40;;;9.23;;
1004;SDS011;491;53.480;10.174;2023-03-21T14:43:20;12.47;;;10.37;;
1004;SDS011;491;53.480;10.174;2023-03-21T14:45:53;12.07;;;7.87;;
1004;SDS011;491;53.480;10.174;2023-03-21T14:48:21;12.73;;;10.17;;
1004;SDS011;491;53.480;10.174;2023-03-21T14:51:00;11.33;;;8.60;;
1004;SDS011;491;53.480;10.174;2023-03-21T14:53:38;11.13;;;9.20;;
1004;SDS011;491;53.480;10.174;2023-03-21T14:56:21;10.13;;;8.20;;
1004;SDS011;491;53.480;10.174;2023-03-21T14:58:56;13.07;;;9.30;;
1004;SDS011;491;53.480;10.174;2023-03-21T15:01:26;11.57;;;9.13;;
1004;SDS011;491;53.480;10.174;2023-03-21T15:04:03;13.33;;;9.33;;
1004;SDS011;491;53.480;10.174;2023-03-21T15:06:51;17.60;;;11.00;;
1004;SDS011;491;53.480;10.174;2023-03-21T15:09:35;12.60;;;9.80;;
1004;SDS011;491;53.480;10.174;2023-03-21T15:12:06;14.37;;;9.60;;
1004;SDS011;491;53.480;10.174;2023-03-21T15:14:55;14.07;;;9.10;;
1004;SDS011;491;53.480;10.174;2023-03-21T15:17:23;14.93;;;10.77;;
1004;SDS011;491;53.480;10.174;2023-03-21T15:19:50;15.03;;;8.23;;
1004;SDS011;491;53.480;10.174;2023-03-21T15:24:58;15.13;;;8.80;;
1004;SDS011;491;53.480;10.174;2023-03-21T15:27:32;11.00;;;8.30;;
1004;SDS011;491;53.480;10.174;2023-03-21T15:30:02;11.93;;;8.83;;
1004;SDS011;491;53.480;10.174;2023-03-21T15:32:28;14.50;;;10.07;;
1004;SDS011;491;53.480;10.174;2023-03-21T15:34:55;14.40;;;9.63;;
1004;SDS011;491;53.480;10.174;2023-03-21T15:37:33;11.63;;;9.10;;
1004;SDS011;491;53.480;10.174;2023-03-21T15:40:07;12.20;;;8.50;;
1004;SDS011;491;53.480;10.174;2023-03-21T15:42:43;11.73;;;8.40;;
1004;SDS011;491;53.480;10.174;2023-03-21T15:45:20;11.33;;;7.90;;
1004;SDS011;491;53.480;10.174;2023-03-21T15:48:02;12.20;;;8.93;;
1004;SDS011;491;53.480;10.174;2023-03-21T15:50:36;12.53;;;7.90;;
1004;SDS011;491;53.480;10.174;2023-03-21T15:53:15;13.03;;;7.60;;
1004;SDS011;491;53.480;10.174;2023-03-21T15:55:51;8.93;;;7.53;;
1004;SDS011;491;53.480;10.174;2023-03-21T15:58:21;13.30;;;7.30;;
1004;SDS011;491;53.480;10.174;2023-03-21T16:00:50;8.73;;;7.77;;
1004;SDS011;491;53.480;10.174;2023-03-21T16:03:26;9.70;;;6.23;;
1004;SDS011;491;53.480;10.174;2023-03-21T16:08:35;7.27;;;6.23;;
1004;SDS011;491;53.480;10.174;2023-03-21T16:11:16;9.27;;;5.80;;
1004;SDS011;491;53.480;10.174;2023-03-21T16:13:53;10.40;;;6.63;;
1004;SDS011;491;53.480;10.174;2023-03-21T16:16:21;16.63;;;7.20;;
1004;SDS011;491;53.480;10.174;2023-03-21T16:18:52;11.83;;;6.20;;
1004;SDS011;491;53.480;10.174;2023-03-21T16:21:20;8.97;;;6.23;;
1004;SDS011;491;53.480;10.174;2023-03-21T16:23:47;12.47;;;5.80;;
1004;SDS011;491;53.480;10.174;2023-03-21T16:26:14;7.43;;;5.73;;
1004;SDS011;491;53.480;10.174;2023-03-21T16:28:42;10.43;;;6.03;;
1004;SDS011;491;53.480;10.174;2023-03-21T16:31:11;8.30;;;6.17;;
1004;SDS011;491;53.480;10.174;2023-03-21T16:33:38;7.23;;;5.70;;
1004;SDS011;491;53.480;10.174;2023-03-21T16:36:04;8.30;;;5.63;;
1004;SDS011;491;53.480;10.174;2023-03-21T16:38:31;9.83;;;6.07;;
1004;SDS011;491;53.480;10.174;2023-03-21T16:40:57;16.50;;;5.50;;
1004;SDS011;491;53.480;10.174;2023-03-21T16:43:24;6.60;;;5.43;;
1004;SDS011;491;53.480;10.174;2023-03-21T16:45:50;7.23;;;5.90;;
1004;SDS011;491;53.480;10.174;2023-03-21T16:48:15;7.13;;;4.90;;
1004;SDS011;491;53.480;10.174;2023-03-21T16:50:45;7.87;;;4.60;;
1004;SDS011;491;53.480;10.174;2023-03-21T16:53:11;8.10;;;5.75;;